createdAt,value
2023-02-06T00:00:57.460Z,98.41
2023-02-06T00:02:01.764Z,100.00
2023-02-06T00:03:04.702Z,100.00
2023-02-06T00:04:08.390Z,100.00
2023-02-06T00:05:10.925Z,100.00
2023-02-06T00:06:12.496Z,100.00
2023-02-06T00:07:15.019Z,100.00
2023-02-06T00:08:16.835Z,100.00
2023-02-06T00:09:19.398Z,100.00
2023-02-06T00:10:21.422Z,100.00
2023-02-06T00:11:24.027Z,100.00
2023-02-06T00:12:25.758Z,100.00
2023-02-06T00:13:28.611Z,99.75
2023-02-06T00:14:31.644Z,98.13
2023-02-06T00:15:33.531Z,96.31
2023-02-06T00:16:36.856Z,95.44
2023-02-06T00:17:39.881Z,94.89
2023-02-06T00:18:42.453Z,93.13
2023-02-06T00:19:44.629Z,92.64
2023-02-06T00:20:48.174Z,91.99
2023-02-06T00:21:52.937Z,91.89
2023-02-06T00:22:54.517Z,92.14
2023-02-06T00:23:59.128Z,91.80
2023-02-06T00:25:00.795Z,91.68
2023-02-06T00:26:04.017Z,91.21
2023-02-06T00:27:05.599Z,90.96
2023-02-06T00:28:08.316Z,90.54
2023-02-06T00:29:10.007Z,90.62
2023-02-06T00:30:13.476Z,90.81
2023-02-06T00:31:16.130Z,90.49
2023-02-06T00:32:19.126Z,90.41
2023-02-06T00:33:22.028Z,89.81
2023-02-06T00:34:24.796Z,89.54
2023-02-06T00:35:26.637Z,89.83
2023-02-06T00:36:29.207Z,90.54
2023-02-06T00:37:30.774Z,91.45
2023-02-06T00:38:34.925Z,92.06
2023-02-06T00:39:37.021Z,91.86
2023-02-06T00:40:39.866Z,90.56
2023-02-06T00:41:41.631Z,89.70
2023-02-06T00:42:44.283Z,89.03
2023-02-06T00:43:46.936Z,88.29
2023-02-06T00:44:49.009Z,87.70
2023-02-06T00:45:53.223Z,87.47
2023-02-06T00:46:54.867Z,87.76
2023-02-06T00:47:57.711Z,88.01
2023-02-06T00:49:00.809Z,88.05
2023-02-06T00:50:04.195Z,87.74
2023-02-06T00:51:06.023Z,87.21
2023-02-06T00:52:10.814Z,86.73
2023-02-06T00:53:12.423Z,86.81
2023-02-06T00:54:15.046Z,86.37
2023-02-06T00:55:16.675Z,86.31
2023-02-06T00:56:19.526Z,86.07
2023-02-06T00:57:21.142Z,85.81
2023-02-06T00:58:23.928Z,85.50
2023-02-06T00:59:25.506Z,85.26
2023-02-06T01:00:28.198Z,85.43
2023-02-06T01:01:30.794Z,85.54
2023-02-06T01:02:32.756Z,85.64
2023-02-06T01:03:35.308Z,85.17
2023-02-06T01:04:38.545Z,85.24
2023-02-06T01:05:41.283Z,85.22
2023-02-06T01:06:42.919Z,85.33
2023-02-06T01:07:45.471Z,85.78
2023-02-06T01:08:48.249Z,85.55
2023-02-06T01:09:49.770Z,84.81
2023-02-06T01:10:52.771Z,85.15
2023-02-06T01:11:54.436Z,85.46
2023-02-06T01:12:57.315Z,85.47
2023-02-06T01:14:00.858Z,84.96
2023-02-06T01:15:03.984Z,84.93
2023-02-06T01:16:08.130Z,85.16
2023-02-06T01:17:10.942Z,85.54
2023-02-06T01:18:13.541Z,87.52
2023-02-06T01:19:15.091Z,88.87
2023-02-06T01:20:19.533Z,89.05
2023-02-06T01:21:23.630Z,88.50
2023-02-06T01:22:26.401Z,87.82
2023-02-06T01:23:28.229Z,87.28
2023-02-06T01:24:30.951Z,86.63
2023-02-06T01:25:32.754Z,86.38
2023-02-06T01:26:35.631Z,85.87
2023-02-06T01:27:37.938Z,85.41
2023-02-06T01:28:42.557Z,86.72
2023-02-06T01:29:44.199Z,87.95
2023-02-06T01:30:46.810Z,87.81
2023-02-06T01:31:50.460Z,87.17
2023-02-06T01:32:53.020Z,87.07
2023-02-06T01:33:55.605Z,86.39
2023-02-06T01:34:58.160Z,86.63
2023-02-06T01:36:01.080Z,86.93
2023-02-06T01:37:03.571Z,88.14
2023-02-06T01:38:05.192Z,90.47
2023-02-06T01:39:08.098Z,93.35
2023-02-06T01:40:15.685Z,94.00
2023-02-06T01:41:20.359Z,94.86
2023-02-06T01:42:21.947Z,93.83
2023-02-06T01:43:26.496Z,92.42
2023-02-06T01:44:28.341Z,91.21
2023-02-06T01:45:38.781Z,90.16
2023-02-06T01:46:41.834Z,89.24
2023-02-06T01:47:44.576Z,89.14
2023-02-06T01:48:50.699Z,88.74
2023-02-06T01:49:53.306Z,87.83
2023-02-06T01:50:57.828Z,87.42
2023-02-06T01:52:06.798Z,86.97
2023-02-06T01:53:09.038Z,86.46
2023-02-06T01:54:13.221Z,86.25
2023-02-06T01:55:18.106Z,85.90
2023-02-06T01:56:23.645Z,85.76
2023-02-06T01:57:26.828Z,85.73
2023-02-06T01:58:32.151Z,85.47
2023-02-06T01:59:36.583Z,85.69
2023-02-06T02:00:39.376Z,85.93
2023-02-06T02:01:41.085Z,86.10
2023-02-06T02:02:49.195Z,85.85
2023-02-06T02:03:55.994Z,85.44
2023-02-06T02:04:59.891Z,85.54
2023-02-06T02:06:07.181Z,85.85
2023-02-06T02:07:16.213Z,85.70
2023-02-06T02:08:23.215Z,85.40
2023-02-06T02:09:26.075Z,84.46
2023-02-06T02:10:29.589Z,84.30
2023-02-06T02:11:34.472Z,84.22
2023-02-06T02:12:36.131Z,84.44
2023-02-06T02:13:39.461Z,84.22
2023-02-06T02:14:43.660Z,84.38
2023-02-06T02:15:58.831Z,84.71
2023-02-06T02:17:14.737Z,85.80
2023-02-06T02:18:28.620Z,85.73
2023-02-06T02:20:01.521Z,85.51
2023-02-06T02:21:41.379Z,84.75
2023-02-06T02:22:59.339Z,84.46
2023-02-06T02:24:08.538Z,84.08
2023-02-06T02:25:45.915Z,84.26
2023-02-06T02:27:08.737Z,90.81
2023-02-06T02:28:43.740Z,93.28
2023-02-06T02:30:30.783Z,92.18
2023-02-06T02:32:03.752Z,90.82
2023-02-06T02:33:48.134Z,93.52
2023-02-06T02:35:09.078Z,97.14
2023-02-06T02:36:15.659Z,98.86
2023-02-06T02:37:25.769Z,99.00
2023-02-06T02:38:39.804Z,99.25
2023-02-06T02:39:46.130Z,98.67
2023-02-06T02:40:55.578Z,99.81
2023-02-06T02:42:00.254Z,100.00
2023-02-06T02:43:14.466Z,100.00
2023-02-06T02:44:26.192Z,100.00
2023-02-06T02:45:34.875Z,100.00
2023-02-06T02:46:40.502Z,100.00
2023-02-06T02:47:47.036Z,100.00
2023-02-06T02:48:53.434Z,100.00
2023-02-06T02:49:58.478Z,100.00
2023-02-06T02:51:02.090Z,100.00
2023-02-06T02:52:04.301Z,100.00
2023-02-06T02:53:08.653Z,100.00
2023-02-06T02:54:10.334Z,100.00
2023-02-06T02:55:18.215Z,100.00
2023-02-06T02:56:23.662Z,100.00
2023-02-06T02:57:31.032Z,100.00
2023-02-06T02:58:34.755Z,100.00
2023-02-06T02:59:41.750Z,100.00
2023-02-06T03:00:45.687Z,100.00
2023-02-06T03:01:53.692Z,100.00
2023-02-06T03:02:58.433Z,100.00
2023-02-06T03:04:08.153Z,100.00
2023-02-06T03:05:14.799Z,100.00
2023-02-06T03:06:34.437Z,100.00
2023-02-06T03:07:42.886Z,99.85
2023-02-06T03:08:57.216Z,99.19
2023-02-06T03:10:07.568Z,99.12
2023-02-06T03:11:14.698Z,99.52
2023-02-06T03:12:23.091Z,98.67
2023-02-06T03:13:32.984Z,96.84
2023-02-06T03:14:43.782Z,95.74
2023-02-06T03:15:52.451Z,94.29
2023-02-06T03:16:59.642Z,93.40
2023-02-06T03:18:10.070Z,92.41
2023-02-06T03:19:16.499Z,90.90
2023-02-06T03:20:21.983Z,90.63
2023-02-06T03:21:25.329Z,89.78
2023-02-06T03:22:29.970Z,89.64
2023-02-06T03:23:37.330Z,89.63
2023-02-06T03:24:41.169Z,89.28
2023-02-06T03:25:46.022Z,88.98
2023-02-06T03:26:51.293Z,89.04
2023-02-06T03:27:54.688Z,89.40
2023-02-06T03:29:01.870Z,89.44
2023-02-06T03:30:06.370Z,89.08
2023-02-06T03:31:13.277Z,88.64
2023-02-06T03:32:20.665Z,88.49
2023-02-06T03:33:30.964Z,88.10
2023-02-06T03:34:38.364Z,88.10
2023-02-06T03:35:43.150Z,87.53
2023-02-06T03:36:44.789Z,87.23
2023-02-06T03:37:48.413Z,86.93
2023-02-06T03:38:52.142Z,87.62
2023-02-06T03:39:55.617Z,89.18
2023-02-06T03:41:00.308Z,89.10
2023-02-06T03:42:06.216Z,88.35
2023-02-06T03:43:08.653Z,88.10
2023-02-06T03:44:16.846Z,87.93
2023-02-06T03:45:24.265Z,87.68
2023-02-06T03:46:29.649Z,87.36
2023-02-06T03:47:33.633Z,87.30
2023-02-06T03:48:40.920Z,87.72
2023-02-06T03:49:44.394Z,87.33
2023-02-06T03:50:54.347Z,86.67
2023-02-06T03:51:59.639Z,86.58
2023-02-06T03:53:05.209Z,87.71
2023-02-06T03:54:09.339Z,88.99
2023-02-06T03:55:18.831Z,88.82
2023-02-06T03:56:30.313Z,89.36
2023-02-06T03:57:35.174Z,89.21
2023-02-06T03:58:37.083Z,89.07
2023-02-06T03:59:39.703Z,88.57
2023-02-06T04:00:43.140Z,88.20
2023-02-06T04:01:51.535Z,87.93
2023-02-06T04:02:55.213Z,87.39
2023-02-06T04:03:59.263Z,87.45
2023-02-06T04:05:01.146Z,87.28
2023-02-06T04:06:05.305Z,86.97
2023-02-06T04:07:14.742Z,86.34
2023-02-06T04:08:17.539Z,86.61
2023-02-06T04:09:19.220Z,86.36
2023-02-06T04:10:21.890Z,86.21
2023-02-06T04:11:23.731Z,86.12
2023-02-06T04:12:26.806Z,86.43
2023-02-06T04:13:31.440Z,86.49
2023-02-06T04:14:35.261Z,86.47
2023-02-06T04:15:37.133Z,86.03
2023-02-06T04:16:40.057Z,86.06
2023-02-06T04:17:57.571Z,86.04
2023-02-06T04:19:01.761Z,85.83
2023-02-06T04:20:05.810Z,85.84
2023-02-06T04:21:11.751Z,85.73
2023-02-06T04:22:15.124Z,86.04
2023-02-06T04:23:17.708Z,86.06
2023-02-06T04:24:19.372Z,85.93
2023-02-06T04:25:22.158Z,85.26
2023-02-06T04:26:23.809Z,84.86
2023-02-06T04:27:26.362Z,84.88
2023-02-06T04:28:28.018Z,84.70
2023-02-06T04:29:31.426Z,84.68
2023-02-06T04:30:33.252Z,84.93
2023-02-06T04:31:35.848Z,84.94
2023-02-06T04:32:37.473Z,85.17
2023-02-06T04:33:40.102Z,84.93
2023-02-06T04:34:41.849Z,85.11
2023-02-06T04:35:44.395Z,84.83
2023-02-06T04:36:48.222Z,84.69
2023-02-06T04:37:49.845Z,84.83
2023-02-06T04:38:52.556Z,85.27
2023-02-06T04:39:54.534Z,85.44
2023-02-06T04:41:03.729Z,85.31
2023-02-06T04:42:05.955Z,85.16
2023-02-06T04:43:08.801Z,84.86
2023-02-06T04:44:10.614Z,84.91
2023-02-06T04:45:14.014Z,84.95
2023-02-06T04:46:15.911Z,84.81
2023-02-06T04:47:18.959Z,84.19
2023-02-06T04:48:20.568Z,84.54
2023-02-06T04:49:23.505Z,84.93
2023-02-06T04:50:25.223Z,84.67
2023-02-06T04:51:27.781Z,84.99
2023-02-06T04:52:31.036Z,84.89
2023-02-06T04:53:34.333Z,85.08
2023-02-06T04:54:38.491Z,85.17
2023-02-06T04:55:41.236Z,85.09
2023-02-06T04:56:42.966Z,84.95
2023-02-06T04:57:45.518Z,86.38
2023-02-06T04:58:47.609Z,87.37
2023-02-06T04:59:50.165Z,88.30
2023-02-06T05:00:53.788Z,88.13
2023-02-06T05:01:59.132Z,88.02
2023-02-06T05:03:00.748Z,87.25
2023-02-06T05:04:04.371Z,87.06
2023-02-06T05:05:08.446Z,87.17
2023-02-06T05:06:11.034Z,87.16
2023-02-06T05:07:12.715Z,86.99
2023-02-06T05:08:16.742Z,87.63
2023-02-06T05:09:18.553Z,89.41
2023-02-06T05:10:21.481Z,91.25
2023-02-06T05:11:23.616Z,91.79
2023-02-06T05:12:29.164Z,91.03
2023-02-06T05:13:31.401Z,90.08
2023-02-06T05:14:36.754Z,89.93
2023-02-06T05:15:39.496Z,89.93
2023-02-06T05:16:42.356Z,89.36
2023-02-06T05:17:44.059Z,88.28
2023-02-06T05:18:47.250Z,87.68
2023-02-06T05:19:48.933Z,87.57
2023-02-06T05:20:51.500Z,86.83
2023-02-06T05:21:53.257Z,86.90
2023-02-06T05:22:55.872Z,87.22
2023-02-06T05:24:01.408Z,86.96
2023-02-06T05:25:04.674Z,87.03
2023-02-06T05:26:09.452Z,86.54
2023-02-06T05:27:12.146Z,86.77
2023-02-06T05:28:13.912Z,87.08
2023-02-06T05:29:19.290Z,86.89
2023-02-06T05:30:21.318Z,86.87
2023-02-06T05:31:24.430Z,87.92
2023-02-06T05:32:26.263Z,89.52
2023-02-06T05:33:29.122Z,91.90
2023-02-06T05:34:30.881Z,93.21
2023-02-06T05:35:34.137Z,92.96
2023-02-06T05:36:36.412Z,92.06
2023-02-06T05:37:39.556Z,91.50
2023-02-06T05:38:41.300Z,89.69
2023-02-06T05:39:45.522Z,89.84
2023-02-06T05:40:51.159Z,88.81
2023-02-06T05:41:55.866Z,88.67
2023-02-06T05:42:57.920Z,87.99
2023-02-06T05:44:00.862Z,87.42
2023-02-06T05:45:02.689Z,87.80
2023-02-06T05:46:06.128Z,87.44
2023-02-06T05:47:08.183Z,87.52
2023-02-06T05:48:10.876Z,87.50
2023-02-06T05:49:12.500Z,87.72
2023-02-06T05:50:15.179Z,87.48
2023-02-06T05:51:17.072Z,87.66
2023-02-06T05:52:20.164Z,87.36
2023-02-06T05:53:21.833Z,87.83
2023-02-06T05:54:25.345Z,88.09
2023-02-06T05:55:30.579Z,89.13
2023-02-06T05:56:33.278Z,91.60
2023-02-06T05:57:35.294Z,92.77
2023-02-06T05:58:37.950Z,94.93
2023-02-06T05:59:39.630Z,95.62
2023-02-06T06:00:42.289Z,94.92
2023-02-06T06:01:45.262Z,94.09
2023-02-06T06:02:48.255Z,92.72
2023-02-06T06:03:49.936Z,91.72
2023-02-06T06:04:52.670Z,91.37
2023-02-06T06:05:54.374Z,90.70
2023-02-06T06:06:57.504Z,89.77
2023-02-06T06:07:59.175Z,89.88
2023-02-06T06:09:02.423Z,89.61
2023-02-06T06:10:04.994Z,89.94
2023-02-06T06:11:08.889Z,89.45
2023-02-06T06:12:10.525Z,89.74
2023-02-06T06:13:13.119Z,89.98
2023-02-06T06:14:14.825Z,89.65
2023-02-06T06:15:17.751Z,89.03
2023-02-06T06:16:19.438Z,89.22
2023-02-06T06:17:22.398Z,89.45
2023-02-06T06:18:24.155Z,89.52
2023-02-06T06:19:26.817Z,89.36
2023-02-06T06:20:28.437Z,89.52
2023-02-06T06:21:31.480Z,89.02
2023-02-06T06:22:34.950Z,88.68
2023-02-06T06:23:37.601Z,88.40
2023-02-06T06:24:39.314Z,88.42
2023-02-06T06:25:42.001Z,88.52
2023-02-06T06:26:45.072Z,88.31
2023-02-06T06:27:47.747Z,88.36
2023-02-06T06:28:49.350Z,88.53
2023-02-06T06:29:51.933Z,88.73
2023-02-06T06:31:00.480Z,89.26
2023-02-06T06:32:03.053Z,88.96
2023-02-06T06:33:05.484Z,88.64
2023-02-06T06:34:08.288Z,88.84
2023-02-06T06:35:10.197Z,88.55
2023-02-06T06:36:14.577Z,88.91
2023-02-06T06:37:16.274Z,89.26
2023-02-06T06:38:18.972Z,89.41
2023-02-06T06:39:20.825Z,89.72
2023-02-06T06:40:23.517Z,89.74
2023-02-06T06:41:25.186Z,90.58
2023-02-06T06:42:30.515Z,90.81
2023-02-06T06:43:33.318Z,91.93
2023-02-06T06:44:35.878Z,91.92
2023-02-06T06:45:37.767Z,92.24
2023-02-06T06:46:40.719Z,92.76
2023-02-06T06:47:42.504Z,93.25
2023-02-06T06:48:45.232Z,92.49
2023-02-06T06:49:47.151Z,92.26
2023-02-06T06:50:50.128Z,91.84
2023-02-06T06:51:52.739Z,91.23
2023-02-06T06:52:54.384Z,91.64
2023-02-06T06:53:57.305Z,91.11
2023-02-06T06:55:00.697Z,91.28
2023-02-06T06:56:06.741Z,90.53
2023-02-06T06:57:09.317Z,90.88
2023-02-06T06:58:12.296Z,90.39
2023-02-06T06:59:15.068Z,89.86
2023-02-06T07:00:17.324Z,89.38
2023-02-06T07:01:20.644Z,89.79
2023-02-06T07:02:22.329Z,89.68
2023-02-06T07:03:25.136Z,90.56
2023-02-06T07:04:30.958Z,91.19
2023-02-06T07:05:32.826Z,91.52
2023-02-06T07:06:35.648Z,91.34
2023-02-06T07:07:40.593Z,91.00
2023-02-06T07:08:43.589Z,90.55
2023-02-06T07:09:45.140Z,90.45
2023-02-06T07:10:48.740Z,90.21
2023-02-06T07:11:50.493Z,93.27
2023-02-06T07:12:53.611Z,93.67
2023-02-06T07:13:56.617Z,93.47
2023-02-06T07:14:59.229Z,94.49
2023-02-06T07:16:00.853Z,95.32
2023-02-06T07:17:03.787Z,95.46
2023-02-06T07:18:07.144Z,95.17
2023-02-06T07:19:09.827Z,94.73
2023-02-06T07:20:13.184Z,93.76
2023-02-06T07:21:16.104Z,93.41
2023-02-06T07:22:22.072Z,92.45
2023-02-06T07:23:27.488Z,92.00
2023-02-06T07:24:30.229Z,92.86
2023-02-06T07:25:32.160Z,94.59
2023-02-06T07:26:41.533Z,95.06
2023-02-06T07:27:43.675Z,94.51
2023-02-06T07:28:48.265Z,93.32
2023-02-06T07:29:51.445Z,92.48
2023-02-06T07:30:54.109Z,91.36
2023-02-06T07:31:55.789Z,90.69
2023-02-06T07:32:58.517Z,89.82
2023-02-06T07:34:00.670Z,89.60
2023-02-06T07:35:03.569Z,89.61
2023-02-06T07:36:10.506Z,89.15
2023-02-06T07:37:12.098Z,89.06
2023-02-06T07:38:14.672Z,89.90
2023-02-06T07:39:16.626Z,90.57
2023-02-06T07:40:21.257Z,90.42
2023-02-06T07:41:26.597Z,89.92
2023-02-06T07:42:28.929Z,90.27
2023-02-06T07:43:31.567Z,89.94
2023-02-06T07:44:34.162Z,90.70
2023-02-06T07:45:37.402Z,91.07
2023-02-06T07:46:40.200Z,90.54
2023-02-06T07:47:44.529Z,89.81
2023-02-06T07:48:47.154Z,89.89
2023-02-06T07:49:48.836Z,89.47
2023-02-06T07:50:51.392Z,89.12
2023-02-06T07:51:55.284Z,88.35
2023-02-06T07:52:57.024Z,88.99
2023-02-06T07:53:59.595Z,88.45
2023-02-06T07:55:01.200Z,88.76
2023-02-06T07:56:03.955Z,88.63
2023-02-06T07:57:06.720Z,88.54
2023-02-06T07:58:11.874Z,88.32
2023-02-06T07:59:14.646Z,87.78
2023-02-06T08:00:16.954Z,88.01
2023-02-06T08:01:21.203Z,87.73
2023-02-06T08:02:22.881Z,87.27
2023-02-06T08:03:25.463Z,87.50
2023-02-06T08:04:34.933Z,87.94
2023-02-06T08:05:38.677Z,87.27
2023-02-06T08:06:42.518Z,87.13
2023-02-06T08:07:46.064Z,87.56
2023-02-06T08:08:51.903Z,88.57
2023-02-06T08:09:56.889Z,89.06
2023-02-06T08:10:58.569Z,90.12
2023-02-06T08:12:01.186Z,90.74
2023-02-06T08:13:02.783Z,91.07
2023-02-06T08:14:05.562Z,92.01
2023-02-06T08:15:09.115Z,91.89
2023-02-06T08:16:15.716Z,92.37
2023-02-06T08:17:21.279Z,92.51
2023-02-06T08:18:23.518Z,92.71
2023-02-06T08:19:26.544Z,93.10
2023-02-06T08:20:32.230Z,93.22
2023-02-06T08:21:33.955Z,93.78
2023-02-06T08:22:36.764Z,93.73
2023-02-06T08:23:39.799Z,93.13
2023-02-06T08:24:42.475Z,92.47
2023-02-06T08:25:44.136Z,92.99
2023-02-06T08:26:46.737Z,93.78
2023-02-06T08:27:52.551Z,93.38
2023-02-06T08:28:56.090Z,93.61
2023-02-06T08:29:59.525Z,93.22
2023-02-06T08:31:01.989Z,92.84
2023-02-06T08:32:05.075Z,92.33
2023-02-06T08:33:09.027Z,92.02
2023-02-06T08:34:13.973Z,91.80
2023-02-06T08:35:16.724Z,91.25
2023-02-06T08:36:19.893Z,90.83
2023-02-06T08:37:22.552Z,90.51
2023-02-06T08:38:24.218Z,90.75
2023-02-06T08:39:28.468Z,90.50
2023-02-06T08:40:30.085Z,89.32
2023-02-06T08:41:37.048Z,89.44
2023-02-06T08:42:39.966Z,89.04
2023-02-06T08:43:42.677Z,88.87
2023-02-06T08:44:45.402Z,89.63
2023-02-06T08:45:49.676Z,90.70
2023-02-06T08:46:58.799Z,90.32
2023-02-06T08:48:08.820Z,91.17
2023-02-06T08:49:14.565Z,91.49
2023-02-06T08:50:20.682Z,91.68
2023-02-06T08:51:22.930Z,92.92
2023-02-06T08:52:25.586Z,92.89
2023-02-06T08:53:28.325Z,92.59
2023-02-06T08:54:32.676Z,92.98
2023-02-06T08:55:38.870Z,92.99
2023-02-06T08:56:41.760Z,93.26
2023-02-06T08:57:44.396Z,93.21
2023-02-06T08:58:46.036Z,93.03
2023-02-06T08:59:49.972Z,92.40
2023-02-06T09:00:52.493Z,92.84
2023-02-06T09:01:55.072Z,94.14
2023-02-06T09:02:57.858Z,94.87
2023-02-06T09:04:03.945Z,96.17
2023-02-06T09:05:06.957Z,96.26
2023-02-06T09:06:10.715Z,95.74
2023-02-06T09:07:15.685Z,94.90
2023-02-06T09:08:19.861Z,95.40
2023-02-06T09:09:22.643Z,95.35
2023-02-06T09:10:27.866Z,95.67
2023-02-06T09:11:31.178Z,96.06
2023-02-06T09:12:35.588Z,96.03
2023-02-06T09:13:40.445Z,96.48
2023-02-06T09:14:43.271Z,97.11
2023-02-06T09:15:55.302Z,97.21
2023-02-06T09:16:58.806Z,97.57
2023-02-06T09:18:04.014Z,97.48
2023-02-06T09:19:10.841Z,96.93
2023-02-06T09:20:12.853Z,97.20
2023-02-06T09:21:18.164Z,96.54
2023-02-06T09:22:21.266Z,97.51
2023-02-06T09:23:24.325Z,99.80
2023-02-06T09:24:30.171Z,100.00
2023-02-06T09:25:33.319Z,100.00
2023-02-06T09:26:44.760Z,100.00
2023-02-06T09:28:10.773Z,100.00
2023-02-06T09:29:14.127Z,100.00
2023-02-06T09:30:19.765Z,99.07
2023-02-06T09:31:23.012Z,99.00
2023-02-06T09:32:25.901Z,99.28
2023-02-06T09:33:28.720Z,99.61
2023-02-06T09:34:37.515Z,99.25
2023-02-06T09:35:40.393Z,100.00
2023-02-06T09:36:42.304Z,100.00
2023-02-06T09:37:49.164Z,100.00
2023-02-06T09:38:58.242Z,100.00
2023-02-06T09:40:03.137Z,100.00
2023-02-06T09:41:14.441Z,99.92
2023-02-06T09:42:22.025Z,99.69
2023-02-06T09:43:24.221Z,100.00
2023-02-06T09:44:34.211Z,99.94
2023-02-06T09:45:36.374Z,99.70
2023-02-06T09:46:48.794Z,98.76
2023-02-06T09:47:55.499Z,98.21
2023-02-06T09:49:01.670Z,97.55
2023-02-06T09:50:08.913Z,96.48
2023-02-06T09:51:19.689Z,96.73
2023-02-06T09:52:27.279Z,98.14
2023-02-06T09:53:41.086Z,99.15
2023-02-06T09:54:52.865Z,99.21
2023-02-06T09:56:01.756Z,98.89
2023-02-06T09:57:12.446Z,99.07
2023-02-06T09:58:25.009Z,99.54
2023-02-06T09:59:33.572Z,99.28
2023-02-06T10:00:42.247Z,99.71
2023-02-06T10:01:50.140Z,99.41
2023-02-06T10:03:07.718Z,98.83
2023-02-06T10:04:34.977Z,98.89
2023-02-06T10:05:55.218Z,98.21
2023-02-06T10:07:09.295Z,98.98
2023-02-06T10:08:20.625Z,98.65
2023-02-06T10:09:33.347Z,98.99
2023-02-06T10:10:47.033Z,98.28
2023-02-06T10:11:55.824Z,98.15
2023-02-06T10:13:06.484Z,99.56
2023-02-06T10:14:19.358Z,99.87
2023-02-06T10:15:35.100Z,99.79
2023-02-06T10:16:44.797Z,100.00
2023-02-06T10:17:54.519Z,99.89
2023-02-06T10:19:06.835Z,99.00
2023-02-06T10:20:15.870Z,98.32
2023-02-06T10:21:31.608Z,98.13
2023-02-06T10:22:41.983Z,97.52
2023-02-06T10:23:53.092Z,96.02
2023-02-06T10:25:15.634Z,95.63
2023-02-06T10:26:22.386Z,95.70
2023-02-06T10:27:24.177Z,96.30
2023-02-06T10:28:32.479Z,96.42
2023-02-06T10:29:41.394Z,96.45
2023-02-06T10:31:00.353Z,96.62
2023-02-06T10:32:15.212Z,96.86
2023-02-06T10:33:26.312Z,96.24
2023-02-06T10:34:41.020Z,97.81
2023-02-06T10:35:53.832Z,98.37
2023-02-06T10:37:15.454Z,97.12
2023-02-06T10:38:49.070Z,98.90
2023-02-06T10:40:14.402Z,98.16
2023-02-06T10:41:28.058Z,97.86
2023-02-06T10:42:46.984Z,96.85
2023-02-06T10:43:55.301Z,96.03
2023-02-06T10:45:18.936Z,97.44
2023-02-06T10:46:41.204Z,100.00
2023-02-06T10:47:49.760Z,100.00
2023-02-06T10:49:01.085Z,99.90
2023-02-06T10:50:18.489Z,99.06
2023-02-06T10:51:25.070Z,98.77
2023-02-06T10:52:36.196Z,98.52
2023-02-06T10:53:42.160Z,98.34
2023-02-06T10:54:53.240Z,97.70
2023-02-06T10:56:00.633Z,96.53
2023-02-06T10:57:03.926Z,95.42
2023-02-06T10:58:26.966Z,95.53
2023-02-06T10:59:31.570Z,96.25
2023-02-06T11:00:35.425Z,95.89
2023-02-06T11:01:41.319Z,95.93
2023-02-06T11:02:55.340Z,96.45
2023-02-06T11:04:13.694Z,95.32
2023-02-06T11:05:21.710Z,95.02
2023-02-06T11:06:29.197Z,96.12
2023-02-06T11:07:37.760Z,97.63
2023-02-06T11:08:45.061Z,97.84
2023-02-06T11:09:50.044Z,97.56
2023-02-06T11:10:59.247Z,97.41
2023-02-06T11:12:06.364Z,97.10
2023-02-06T11:13:17.052Z,97.26
2023-02-06T11:14:24.974Z,97.75
2023-02-06T11:15:34.862Z,97.58
2023-02-06T11:16:38.506Z,98.39
2023-02-06T11:17:42.782Z,99.20
2023-02-06T11:18:50.635Z,98.99
2023-02-06T11:20:05.291Z,99.65
2023-02-06T11:21:16.640Z,100.00
2023-02-06T11:22:52.049Z,99.40
2023-02-06T11:24:10.241Z,96.83
2023-02-06T11:25:24.505Z,96.28
2023-02-06T11:26:28.369Z,95.94
2023-02-06T11:27:32.102Z,95.55
2023-02-06T11:28:37.951Z,96.09
2023-02-06T11:29:51.952Z,95.88
2023-02-06T11:30:58.731Z,95.24
2023-02-06T11:32:07.295Z,95.07
2023-02-06T11:33:22.358Z,97.68
2023-02-06T11:34:30.197Z,99.82
2023-02-06T11:35:38.434Z,99.20
2023-02-06T11:36:42.359Z,98.49
2023-02-06T11:37:44.406Z,98.51
2023-02-06T11:38:56.135Z,97.92
2023-02-06T11:40:22.523Z,97.67
2023-02-06T11:41:28.590Z,98.50
2023-02-06T11:42:30.871Z,98.27
2023-02-06T11:43:37.326Z,97.92
2023-02-06T11:44:43.436Z,98.05
2023-02-06T11:45:47.375Z,97.19
2023-02-06T11:47:00.166Z,98.41
2023-02-06T11:48:01.889Z,98.87
2023-02-06T11:49:10.719Z,98.38
2023-02-06T11:50:24.165Z,98.80
2023-02-06T11:51:45.657Z,99.04
2023-02-06T11:52:48.019Z,98.23
2023-02-06T11:53:57.763Z,97.83
2023-02-06T11:55:03.924Z,98.60
2023-02-06T11:56:17.972Z,98.65
2023-02-06T11:57:23.953Z,98.53
2023-02-06T11:58:28.829Z,98.81
2023-02-06T11:59:35.165Z,99.43
2023-02-06T12:00:37.066Z,99.12
2023-02-06T12:01:50.006Z,100.00
2023-02-06T12:03:00.663Z,100.00
2023-02-06T12:04:15.852Z,100.00
2023-02-06T12:05:20.744Z,100.00
2023-02-06T12:06:29.667Z,100.00
2023-02-06T12:07:37.268Z,100.00
2023-02-06T12:08:51.195Z,100.00
2023-02-06T12:09:56.825Z,100.00
2023-02-06T12:11:03.134Z,100.00
2023-02-06T12:12:18.571Z,100.00
2023-02-06T12:13:25.720Z,100.00
2023-02-06T12:14:39.114Z,100.00
2023-02-06T12:15:47.532Z,100.00
2023-02-06T12:16:53.043Z,100.00
2023-02-06T12:18:02.806Z,100.00
2023-02-06T12:19:11.869Z,100.00
2023-02-06T12:20:22.395Z,100.00
2023-02-06T12:21:31.067Z,100.00
2023-02-06T12:22:52.731Z,100.00
2023-02-06T12:23:57.809Z,100.00
2023-02-06T12:25:04.582Z,100.00
2023-02-06T12:26:11.977Z,100.00
2023-02-06T12:27:20.964Z,100.00
2023-02-06T12:28:26.358Z,100.00
2023-02-06T12:29:36.309Z,100.00
2023-02-06T12:30:46.529Z,100.00
2023-02-06T12:31:53.876Z,100.00
2023-02-06T12:33:02.976Z,100.00
2023-02-06T12:34:13.236Z,100.00
2023-02-06T12:35:23.597Z,100.00
2023-02-06T12:36:36.540Z,100.00
2023-02-06T12:37:48.998Z,100.00
2023-02-06T12:38:57.194Z,100.00
2023-02-06T12:40:01.551Z,100.00
2023-02-06T12:41:20.521Z,100.00
2023-02-06T12:42:36.157Z,100.00
2023-02-06T12:43:39.280Z,100.00
2023-02-06T12:44:48.105Z,100.00
2023-02-06T12:45:58.258Z,100.00
2023-02-06T12:47:08.323Z,100.00
2023-02-06T12:48:18.395Z,100.00
2023-02-06T12:49:25.094Z,100.00
2023-02-06T12:50:31.401Z,100.00
2023-02-06T12:51:40.356Z,100.00
2023-02-06T12:52:48.724Z,100.00
2023-02-06T12:53:58.611Z,100.00
2023-02-06T12:55:09.457Z,100.00
2023-02-06T12:56:22.061Z,100.00
2023-02-06T12:57:27.520Z,100.00
2023-02-06T12:58:46.205Z,100.00
2023-02-06T13:00:07.679Z,100.00
2023-02-06T13:01:30.702Z,100.00
2023-02-06T13:02:55.223Z,100.00
2023-02-06T13:04:02.685Z,100.00
2023-02-06T13:05:15.676Z,100.00
2023-02-06T13:06:21.757Z,100.00
2023-02-06T13:07:25.765Z,100.00
2023-02-06T13:08:31.873Z,100.00
2023-02-06T13:09:37.222Z,100.00
2023-02-06T13:10:41.379Z,100.00
2023-02-06T13:11:55.736Z,100.00
2023-02-06T13:12:59.552Z,100.00
2023-02-06T13:14:16.748Z,100.00
2023-02-06T13:15:22.720Z,100.00
2023-02-06T13:16:38.979Z,100.00
2023-02-06T13:17:44.927Z,100.00
2023-02-06T13:18:53.853Z,100.00
2023-02-06T13:20:07.875Z,100.00
2023-02-06T13:21:17.881Z,100.00
2023-02-06T13:22:43.889Z,100.00
2023-02-06T13:23:50.609Z,100.00
2023-02-06T13:24:53.293Z,100.00
2023-02-06T13:25:56.043Z,100.00
2023-02-06T13:27:03.194Z,100.00
2023-02-06T13:28:39.436Z,100.00
2023-02-06T13:29:45.255Z,100.00
2023-02-06T13:30:48.789Z,100.00
2023-02-06T13:32:30.063Z,100.00
2023-02-06T13:33:41.053Z,100.00
2023-02-06T13:34:44.934Z,100.00
2023-02-06T13:35:57.192Z,100.00
2023-02-06T13:37:23.998Z,100.00
2023-02-06T13:38:37.214Z,100.00
2023-02-06T13:39:40.211Z,100.00
2023-02-06T13:40:41.921Z,99.95
2023-02-06T13:41:44.717Z,100.00
2023-02-06T13:42:53.722Z,100.00
2023-02-06T13:43:59.869Z,100.00
2023-02-06T13:45:07.956Z,99.61
2023-02-06T13:46:14.560Z,98.99
2023-02-06T13:47:29.984Z,99.00
2023-02-06T13:48:51.965Z,99.05
2023-02-06T13:50:32.312Z,99.86
2023-02-06T13:51:50.361Z,99.87
2023-02-06T13:53:12.765Z,99.58
2023-02-06T13:54:44.712Z,100.00
2023-02-06T13:55:59.272Z,100.00
2023-02-06T13:57:16.590Z,100.00
2023-02-06T13:58:46.352Z,100.00
2023-02-06T13:59:53.112Z,100.00
2023-02-06T14:01:00.350Z,100.00
2023-02-06T14:02:11.812Z,100.00
2023-02-06T14:03:19.902Z,100.00
2023-02-06T14:04:26.499Z,100.00
2023-02-06T14:05:41.199Z,100.00
2023-02-06T14:07:06.822Z,100.00
2023-02-06T14:08:22.500Z,100.00
2023-02-06T14:09:40.000Z,100.00
2023-02-06T14:10:58.963Z,100.00